sensor_id;sensor_type;location;lat;lon;timestamp;P1;durP1;ratioP1;P2;durP2;ratioP2
19798;SDS011;10059;59.850;10.454;2022-10-01T00:01:56;9.63;;;4.07;;
19798;SDS011;10059;59.850;10.454;2022-10-01T00:04:24;8.00;;;4.17;;
19798;SDS011;10059;59.850;10.454;2022-10-01T00:06:51;8.77;;;4.67;;
19798;SDS011;10059;59.850;10.454;2022-10-01T00:09:18;6.97;;;4.57;;
19798;SDS011;10059;59.850;10.454;2022-10-01T00:11:45;7.53;;;4.30;;
19798;SDS011;10059;59.850;10.454;2022-10-01T00:14:14;5.80;;;4.40;;
19798;SDS011;10059;59.850;10.454;2022-10-01T00:16:41;8.03;;;4.80;;
19798;SDS011;10059;59.850;10.454;2022-10-01T00:19:10;8.57;;;4.63;;
19798;SDS011;10059;59.850;10.454;2022-10-01T00:21:37;7.30;;;4.47;;
19798;SDS011;10059;59.850;10.454;2022-10-01T00:24:04;8.63;;;4.83;;
19798;SDS011;10059;59.850;10.454;2022-10-01T00:26:32;12.33;;;6.33;;
19798;SDS011;10059;59.850;10.454;2022-10-01T00:29:00;11.37;;;6.20;;
19798;SDS011;10059;59.850;10.454;2022-10-01T00:31:30;9.03;;;6.40;;
19798;SDS011;10059;59.850;10.454;2022-10-01T00:33:57;9.87;;;6.10;;
19798;SDS011;10059;59.850;10.454;2022-10-01T00:36:26;8.90;;;5.33;;
19798;SDS011;10059;59.850;10.454;2022-10-01T00:38:54;8.90;;;5.23;;
19798;SDS011;10059;59.850;10.454;2022-10-01T00:41:24;10.33;;;5.17;;
19798;SDS011;10059;59.850;10.454;2022-10-01T00:43:53;6.00;;;4.63;;
19798;SDS011;10059;59.850;10.454;2022-10-01T00:46:22;10.03;;;5.20;;
19798;SDS011;10059;59.850;10.454;2022-10-01T00:48:53;8.57;;;5.40;;
19798;SDS011;10059;59.850;10.454;2022-10-01T00:51:22;8.63;;;5.20;;
19798;SDS011;10059;59.850;10.454;2022-10-01T00:53:50;10.03;;;5.13;;
19798;SDS011;10059;59.850;10.454;2022-10-01T00:56:18;6.97;;;4.90;;
19798;SDS011;10059;59.850;10.454;2022-10-01T00:58:45;8.87;;;5.10;;
19798;SDS011;10059;59.850;10.454;2022-10-01T01:01:18;9.13;;;5.40;;
19798;SDS011;10059;59.850;10.454;2022-10-01T01:03:45;10.80;;;5.37;;
19798;SDS011;10059;59.850;10.454;2022-10-01T01:06:14;8.67;;;5.20;;
19798;SDS011;10059;59.850;10.454;2022-10-01T01:08:41;10.67;;;5.20;;
19798;SDS011;10059;59.850;10.454;2022-10-01T01:11:10;9.40;;;5.27;;
19798;SDS011;10059;59.850;10.454;2022-10-01T01:13:41;7.47;;;5.03;;
19798;SDS011;10059;59.850;10.454;2022-10-01T01:16:13;6.73;;;4.90;;
19798;SDS011;10059;59.850;10.454;2022-10-01T01:18:44;6.93;;;4.70;;
19798;SDS011;10059;59.850;10.454;2022-10-01T01:21:21;9.83;;;4.80;;
19798;SDS011;10059;59.850;10.454;2022-10-01T01:26:43;8.23;;;4.37;;
19798;SDS011;10059;59.850;10.454;2022-10-01T01:29:14;9.40;;;4.57;;
19798;SDS011;10059;59.850;10.454;2022-10-01T01:31:45;8.37;;;4.60;;
19798;SDS011;10059;59.850;10.454;2022-10-01T01:34:15;5.07;;;4.30;;
19798;SDS011;10059;59.850;10.454;2022-10-01T01:36:44;7.90;;;4.20;;
19798;SDS011;10059;59.850;10.454;2022-10-01T01:39:13;5.20;;;3.83;;
19798;SDS011;10059;59.850;10.454;2022-10-01T01:41:44;8.53;;;4.20;;
19798;SDS011;10059;59.850;10.454;2022-10-01T01:44:15;9.83;;;4.50;;
19798;SDS011;10059;59.850;10.454;2022-10-01T01:46:45;9.23;;;4.87;;
19798;SDS011;10059;59.850;10.454;2022-10-01T01:49:14;7.53;;;4.00;;
19798;SDS011;10059;59.850;10.454;2022-10-01T01:51:44;11.57;;;4.07;;
19798;SDS011;10059;59.850;10.454;2022-10-01T01:54:14;10.63;;;5.10;;
19798;SDS011;10059;59.850;10.454;2022-10-01T01:56:41;11.60;;;5.07;;
19798;SDS011;10059;59.850;10.454;2022-10-01T01:59:08;8.47;;;4.57;;
19798;SDS011;10059;59.850;10.454;2022-10-01T02:01:37;12.63;;;4.90;;
19798;SDS011;10059;59.850;10.454;2022-10-01T02:04:06;11.43;;;4.70;;
19798;SDS011;10059;59.850;10.454;2022-10-01T02:06:39;10.37;;;5.23;;
19798;SDS011;10059;59.850;10.454;2022-10-01T02:09:10;9.27;;;4.47;;
19798;SDS011;10059;59.850;10.454;2022-10-01T02:11:43;9.00;;;4.70;;
19798;SDS011;10059;59.850;10.454;2022-10-01T02:14:13;6.13;;;3.83;;
19798;SDS011;10059;59.850;10.454;2022-10-01T02:16:48;5.80;;;3.87;;
19798;SDS011;10059;59.850;10.454;2022-10-01T02:19:20;11.00;;;4.27;;
19798;SDS011;10059;59.850;10.454;2022-10-01T02:21:52;9.77;;;4.50;;
19798;SDS011;10059;59.850;10.454;2022-10-01T02:24:24;8.63;;;3.90;;
19798;SDS011;10059;59.850;10.454;2022-10-01T02:26:53;12.03;;;4.63;;
19798;SDS011;10059;59.850;10.454;2022-10-01T02:29:21;9.90;;;4.67;;
19798;SDS011;10059;59.850;10.454;2022-10-01T02:31:51;7.90;;;4.90;;
19798;SDS011;10059;59.850;10.454;2022-10-01T02:34:20;12.70;;;5.33;;
19798;SDS011;10059;59.850;10.454;2022-10-01T02:36:48;10.30;;;5.13;;
19798;SDS011;10059;59.850;10.454;2022-10-01T02:39:16;10.87;;;4.97;;
19798;SDS011;10059;59.850;10.454;2022-10-01T02:41:45;10.90;;;5.07;;
19798;SDS011;10059;59.850;10.454;2022-10-01T02:44:14;10.27;;;5.43;;
19798;SDS011;10059;59.850;10.454;2022-10-01T02:46:47;9.27;;;5.03;;
19798;SDS011;10059;59.850;10.454;2022-10-01T02:49:19;14.90;;;5.90;;
19798;SDS011;10059;59.850;10.454;2022-10-01T02:51:48;11.47;;;5.57;;
19798;SDS011;10059;59.850;10.454;2022-10-01T02:54:21;12.47;;;5.67;;
19798;SDS011;10059;59.850;10.454;2022-10-01T02:56:50;14.27;;;5.63;;
19798;SDS011;10059;59.850;10.454;2022-10-01T02:59:41;11.80;;;5.33;;
19798;SDS011;10059;59.850;10.454;2022-10-01T03:02:08;8.87;;;5.17;;
19798;SDS011;10059;59.850;10.454;2022-10-01T03:04:38;13.57;;;5.70;;
19798;SDS011;10059;59.850;10.454;2022-10-01T03:07:05;14.80;;;5.30;;
19798;SDS011;10059;59.850;10.454;2022-10-01T03:09:32;14.07;;;5.70;;
19798;SDS011;10059;59.850;10.454;2022-10-01T03:12:00;11.67;;;5.67;;
19798;SDS011;10059;59.850;10.454;2022-10-01T03:14:28;12.27;;;5.80;;
19798;SDS011;10059;59.850;10.454;2022-10-01T03:16:56;11.43;;;6.00;;
19798;SDS011;10059;59.850;10.454;2022-10-01T03:19:23;14.93;;;5.73;;
19798;SDS011;10059;59.850;10.454;2022-10-01T03:21:52;15.07;;;5.70;;
19798;SDS011;10059;59.850;10.454;2022-10-01T03:24:20;10.57;;;5.27;;
19798;SDS011;10059;59.850;10.454;2022-10-01T03:26:47;8.47;;;5.77;;
19798;SDS011;10059;59.850;10.454;2022-10-01T03:29:14;11.27;;;5.50;;
19798;SDS011;10059;59.850;10.454;2022-10-01T03:31:42;15.23;;;6.30;;
19798;SDS011;10059;59.850;10.454;2022-10-01T03:34:09;8.30;;;5.80;;
19798;SDS011;10059;59.850;10.454;2022-10-01T03:36:37;13.63;;;6.13;;
19798;SDS011;10059;59.850;10.454;2022-10-01T03:39:05;12.47;;;5.93;;
19798;SDS011;10059;59.850;10.454;2022-10-01T03:41:33;12.37;;;6.17;;
19798;SDS011;10059;59.850;10.454;2022-10-01T03:44:00;13.40;;;6.67;;
19798;SDS011;10059;59.850;10.454;2022-10-01T03:46:28;15.37;;;6.80;;
19798;SDS011;10059;59.850;10.454;2022-10-01T03:48:55;11.63;;;6.90;;
19798;SDS011;10059;59.850;10.454;2022-10-01T03:51:25;10.57;;;6.90;;
19798;SDS011;10059;59.850;10.454;2022-10-01T03:53:52;9.27;;;6.50;;
19798;SDS011;10059;59.850;10.454;2022-10-01T03:56:21;11.40;;;6.93;;
19798;SDS011;10059;59.850;10.454;2022-10-01T03:58:48;13.70;;;7.67;;
19798;SDS011;10059;59.850;10.454;2022-10-01T04:01:15;12.33;;;7.33;;
19798;SDS011;10059;59.850;10.454;2022-10-01T04:03:43;11.37;;;7.00;;
19798;SDS011;10059;59.850;10.454;2022-10-01T04:06:10;19.33;;;7.40;;
19798;SDS011;10059;59.850;10.454;2022-10-01T04:08:37;17.07;;;7.67;;
19798;SDS011;10059;59.850;10.454;2022-10-01T04:11:05;13.83;;;7.83;;
19798;SDS011;10059;59.850;10.454;2022-10-01T04:13:34;13.87;;;7.60;;
19798;SDS011;10059;59.850;10.454;2022-10-01T04:16:01;16.07;;;7.57;;
19798;SDS011;10059;59.850;10.454;2022-10-01T04:18:28;15.13;;;7.70;;
19798;SDS011;10059;59.850;10.454;2022-10-01T04:20:55;16.43;;;8.40;;
19798;SDS011;10059;59.850;10.454;2022-10-01T04:23:23;17.47;;;8.43;;
19798;SDS011;10059;59.850;10.454;2022-10-01T04:25:50;17.57;;;8.90;;
19798;SDS011;10059;59.850;10.454;2022-10-01T04:28:17;14.37;;;9.33;;
19798;SDS011;10059;59.850;10.454;2022-10-01T04:30:46;18.27;;;10.03;;
19798;SDS011;10059;59.850;10.454;2022-10-01T04:33:14;18.57;;;10.73;;
19798;SDS011;10059;59.850;10.454;2022-10-01T04:35:42;15.63;;;10.17;;
19798;SDS011;10059;59.850;10.454;2022-10-01T04:38:11;19.20;;;10.10;;
19798;SDS011;10059;59.850;10.454;2022-10-01T04:40:38;20.87;;;10.53;;
19798;SDS011;10059;59.850;10.454;2022-10-01T04:43:06;22.80;;;11.03;;
19798;SDS011;10059;59.850;10.454;2022-10-01T04:45:33;22.60;;;10.87;;
19798;SDS011;10059;59.850;10.454;2022-10-01T04:48:02;16.20;;;10.30;;
19798;SDS011;10059;59.850;10.454;2022-10-01T04:50:30;22.67;;;11.07;;
19798;SDS011;10059;59.850;10.454;2022-10-01T04:52:57;23.30;;;10.70;;
19798;SDS011;10059;59.850;10.454;2022-10-01T04:55:24;20.13;;;11.10;;
19798;SDS011;10059;59.850;10.454;2022-10-01T04:57:52;18.30;;;11.57;;
19798;SDS011;10059;59.850;10.454;2022-10-01T05:00:19;20.97;;;11.87;;
19798;SDS011;10059;59.850;10.454;2022-10-01T05:02:48;24.47;;;12.97;;
19798;SDS011;10059;59.850;10.454;2022-10-01T05:05:17;22.13;;;14.20;;
19798;SDS011;10059;59.850;10.454;2022-10-01T05:07:45;20.67;;;13.83;;
19798;SDS011;10059;59.850;10.454;2022-10-01T05:10:13;24.00;;;14.50;;
19798;SDS011;10059;59.850;10.454;2022-10-01T05:12:40;24.67;;;14.90;;
19798;SDS011;10059;59.850;10.454;2022-10-01T05:15:08;27.17;;;15.63;;
19798;SDS011;10059;59.850;10.454;2022-10-01T05:17:35;28.03;;;17.47;;
19798;SDS011;10059;59.850;10.454;2022-10-01T05:20:03;31.77;;;17.73;;
19798;SDS011;10059;59.850;10.454;2022-10-01T05:22:32;30.67;;;18.70;;
19798;SDS011;10059;59.850;10.454;2022-10-01T05:24:59;31.87;;;19.47;;
19798;SDS011;10059;59.850;10.454;2022-10-01T05:27:27;35.90;;;19.43;;
19798;SDS011;10059;59.850;10.454;2022-10-01T05:30:00;34.40;;;20.33;;
19798;SDS011;10059;59.850;10.454;2022-10-01T05:32:27;33.43;;;20.60;;
19798;SDS011;10059;59.850;10.454;2022-10-01T05:34:55;38.77;;;20.27;;
19798;SDS011;10059;59.850;10.454;2022-10-01T05:37:22;38.73;;;21.80;;
19798;SDS011;10059;59.850;10.454;2022-10-01T05:39:51;36.83;;;21.60;;
19798;SDS011;10059;59.850;10.454;2022-10-01T05:42:18;38.57;;;22.77;;
19798;SDS011;10059;59.850;10.454;2022-10-01T05:44:45;42.33;;;23.03;;
19798;SDS011;10059;59.850;10.454;2022-10-01T05:47:14;37.53;;;22.87;;
19798;SDS011;10059;59.850;10.454;2022-10-01T05:49:42;36.83;;;22.67;;
19798;SDS011;10059;59.850;10.454;2022-10-01T05:52:10;40.10;;;23.13;;
19798;SDS011;10059;59.850;10.454;2022-10-01T05:54:37;34.80;;;22.30;;
19798;SDS011;10059;59.850;10.454;2022-10-01T05:57:05;42.90;;;24.00;;
19798;SDS011;10059;59.850;10.454;2022-10-01T05:59:33;36.07;;;23.30;;
19798;SDS011;10059;59.850;10.454;2022-10-01T06:02:00;43.20;;;26.20;;
19798;SDS011;10059;59.850;10.454;2022-10-01T06:04:28;44.17;;;25.30;;
19798;SDS011;10059;59.850;10.454;2022-10-01T06:06:55;42.33;;;26.13;;
19798;SDS011;10059;59.850;10.454;2022-10-01T06:09:23;45.37;;;26.70;;
19798;SDS011;10059;59.850;10.454;2022-10-01T06:11:50;44.63;;;26.93;;
19798;SDS011;10059;59.850;10.454;2022-10-01T06:14:18;47.50;;;27.77;;
19798;SDS011;10059;59.850;10.454;2022-10-01T06:16:46;47.23;;;28.43;;
19798;SDS011;10059;59.850;10.454;2022-10-01T06:19:13;51.20;;;29.07;;
19798;SDS011;10059;59.850;10.454;2022-10-01T06:21:41;51.77;;;30.43;;
19798;SDS011;10059;59.850;10.454;2022-10-01T06:24:08;52.70;;;30.27;;
19798;SDS011;10059;59.850;10.454;2022-10-01T06:26:35;56.27;;;30.73;;
19798;SDS011;10059;59.850;10.454;2022-10-01T06:29:03;59.17;;;31.30;;
19798;SDS011;10059;59.850;10.454;2022-10-01T06:31:31;53.30;;;31.87;;
19798;SDS011;10059;59.850;10.454;2022-10-01T06:33:59;56.50;;;32.97;;
19798;SDS011;10059;59.850;10.454;2022-10-01T06:36:26;58.80;;;35.17;;
19798;SDS011;10059;59.850;10.454;2022-10-01T06:38:53;61.90;;;35.73;;
19798;SDS011;10059;59.850;10.454;2022-10-01T06:41:20;51.47;;;35.90;;
19798;SDS011;10059;59.850;10.454;2022-10-01T06:43:48;57.43;;;33.33;;
19798;SDS011;10059;59.850;10.454;2022-10-01T06:46:15;52.87;;;32.93;;
19798;SDS011;10059;59.850;10.454;2022-10-01T06:48:43;58.67;;;33.83;;
19798;SDS011;10059;59.850;10.454;2022-10-01T06:51:10;57.50;;;33.57;;
19798;SDS011;10059;59.850;10.454;2022-10-01T06:53:38;50.70;;;33.50;;
19798;SDS011;10059;59.850;10.454;2022-10-01T06:56:05;49.03;;;33.57;;
19798;SDS011;10059;59.850;10.454;2022-10-01T06:58:33;53.10;;;34.03;;
19798;SDS011;10059;59.850;10.454;2022-10-01T07:01:01;52.20;;;35.13;;
19798;SDS011;10059;59.850;10.454;2022-10-01T07:03:29;52.10;;;34.50;;
19798;SDS011;10059;59.850;10.454;2022-10-01T07:06:01;57.27;;;35.63;;
19798;SDS011;10059;59.850;10.454;2022-10-01T07:08:29;54.10;;;35.10;;
19798;SDS011;10059;59.850;10.454;2022-10-01T07:11:00;57.60;;;35.37;;
19798;SDS011;10059;59.850;10.454;2022-10-01T07:13:27;54.37;;;35.93;;
19798;SDS011;10059;59.850;10.454;2022-10-01T07:15:54;56.33;;;35.27;;
19798;SDS011;10059;59.850;10.454;2022-10-01T07:18:22;52.83;;;35.13;;
19798;SDS011;10059;59.850;10.454;2022-10-01T07:20:49;56.87;;;37.10;;
19798;SDS011;10059;59.850;10.454;2022-10-01T07:23:17;60.27;;;36.17;;
19798;SDS011;10059;59.850;10.454;2022-10-01T07:25:46;57.47;;;35.17;;
19798;SDS011;10059;59.850;10.454;2022-10-01T07:28:14;56.63;;;36.37;;
19798;SDS011;10059;59.850;10.454;2022-10-01T07:30:42;53.47;;;35.03;;
19798;SDS011;10059;59.850;10.454;2022-10-01T07:33:11;52.87;;;34.83;;
19798;SDS011;10059;59.850;10.454;2022-10-01T07:35:38;55.60;;;36.10;;
19798;SDS011;10059;59.850;10.454;2022-10-01T07:38:06;49.70;;;33.50;;
19798;SDS011;10059;59.850;10.454;2022-10-01T07:40:35;59.13;;;33.27;;
19798;SDS011;10059;59.850;10.454;2022-10-01T07:43:02;51.90;;;32.13;;
19798;SDS011;10059;59.850;10.454;2022-10-01T07:45:30;48.63;;;30.13;;
19798;SDS011;10059;59.850;10.454;2022-10-01T07:47:58;45.40;;;29.90;;
19798;SDS011;10059;59.850;10.454;2022-10-01T07:50:25;48.80;;;29.90;;
19798;SDS011;10059;59.850;10.454;2022-10-01T07:52:54;41.53;;;26.60;;
19798;SDS011;10059;59.850;10.454;2022-10-01T07:55:23;47.20;;;29.10;;
19798;SDS011;10059;59.850;10.454;2022-10-01T07:57:52;43.23;;;28.50;;
19798;SDS011;10059;59.850;10.454;2022-10-01T08:00:20;40.87;;;27.87;;
19798;SDS011;10059;59.850;10.454;2022-10-01T08:02:48;44.63;;;29.43;;
19798;SDS011;10059;59.850;10.454;2022-10-01T08:05:18;44.73;;;30.47;;
19798;SDS011;10059;59.850;10.454;2022-10-01T08:07:46;44.53;;;29.07;;
19798;SDS011;10059;59.850;10.454;2022-10-01T08:10:13;48.50;;;31.03;;
19798;SDS011;10059;59.850;10.454;2022-10-01T08:12:41;46.80;;;31.10;;
19798;SDS011;10059;59.850;10.454;2022-10-01T08:15:10;46.87;;;31.40;;
19798;SDS011;10059;59.850;10.454;2022-10-01T08:17:37;52.57;;;34.40;;
19798;SDS011;10059;59.850;10.454;2022-10-01T08:20:05;48.60;;;32.53;;
19798;SDS011;10059;59.850;10.454;2022-10-01T08:22:33;50.07;;;33.67;;
19798;SDS011;10059;59.850;10.454;2022-10-01T08:25:00;51.67;;;33.30;;
19798;SDS011;10059;59.850;10.454;2022-10-01T08:27:27;50.53;;;31.87;;
19798;SDS011;10059;59.850;10.454;2022-10-01T08:29:54;42.80;;;29.57;;
19798;SDS011;10059;59.850;10.454;2022-10-01T08:32:23;41.93;;;29.90;;
19798;SDS011;10059;59.850;10.454;2022-10-01T08:34:52;45.50;;;30.97;;
19798;SDS011;10059;59.850;10.454;2022-10-01T08:37:22;46.23;;;30.77;;
19798;SDS011;10059;59.850;10.454;2022-10-01T08:39:51;51.00;;;31.17;;
19798;SDS011;10059;59.850;10.454;2022-10-01T08:42:20;48.30;;;32.13;;
19798;SDS011;10059;59.850;10.454;2022-10-01T08:44:52;40.93;;;31.07;;
19798;SDS011;10059;59.850;10.454;2022-10-01T08:47:21;45.90;;;31.30;;
19798;SDS011;10059;59.850;10.454;2022-10-01T08:49:54;43.80;;;30.57;;
19798;SDS011;10059;59.850;10.454;2022-10-01T08:52:25;40.40;;;27.67;;
19798;SDS011;10059;59.850;10.454;2022-10-01T08:54:54;39.67;;;27.57;;
19798;SDS011;10059;59.850;10.454;2022-10-01T08:57:23;41.07;;;28.07;;
19798;SDS011;10059;59.850;10.454;2022-10-01T08:59:50;48.93;;;29.83;;
19798;SDS011;10059;59.850;10.454;2022-10-01T09:02:20;39.37;;;28.20;;
19798;SDS011;10059;59.850;10.454;2022-10-01T09:04:49;43.60;;;28.17;;
19798;SDS011;10059;59.850;10.454;2022-10-01T09:07:23;44.93;;;29.97;;
19798;SDS011;10059;59.850;10.454;2022-10-01T09:09:54;44.00;;;29.10;;
19798;SDS011;10059;59.850;10.454;2022-10-01T09:12:27;41.47;;;27.87;;
19798;SDS011;10059;59.850;10.454;2022-10-01T09:15:00;41.47;;;29.20;;
19798;SDS011;10059;59.850;10.454;2022-10-01T09:17:36;46.77;;;28.87;;
19798;SDS011;10059;59.850;10.454;2022-10-01T09:20:09;41.67;;;28.63;;
19798;SDS011;10059;59.850;10.454;2022-10-01T09:22:39;48.83;;;29.07;;
19798;SDS011;10059;59.850;10.454;2022-10-01T09:25:13;50.33;;;31.10;;
19798;SDS011;10059;59.850;10.454;2022-10-01T09:27:42;41.87;;;27.13;;
19798;SDS011;10059;59.850;10.454;2022-10-01T09:30:11;43.63;;;28.40;;
19798;SDS011;10059;59.850;10.454;2022-10-01T09:32:40;37.93;;;26.77;;
19798;SDS011;10059;59.850;10.454;2022-10-01T09:35:14;45.20;;;26.87;;
19798;SDS011;10059;59.850;10.454;2022-10-01T09:37:47;37.07;;;23.37;;
19798;SDS011;10059;59.850;10.454;2022-10-01T09:40:19;40.67;;;24.50;;
19798;SDS011;10059;59.850;10.454;2022-10-01T09:42:47;34.20;;;22.77;;
19798;SDS011;10059;59.850;10.454;2022-10-01T09:45:14;30.40;;;22.20;;
19798;SDS011;10059;59.850;10.454;2022-10-01T09:47:44;29.97;;;22.37;;
19798;SDS011;10059;59.850;10.454;2022-10-01T09:50:14;33.07;;;23.47;;
19798;SDS011;10059;59.850;10.454;2022-10-01T09:52:41;35.77;;;23.47;;
19798;SDS011;10059;59.850;10.454;2022-10-01T09:55:17;32.47;;;21.77;;
19798;SDS011;10059;59.850;10.454;2022-10-01T09:57:46;36.93;;;21.10;;
19798;SDS011;10059;59.850;10.454;2022-10-01T10:00:17;26.73;;;20.60;;
19798;SDS011;10059;59.850;10.454;2022-10-01T10:02:45;27.87;;;19.87;;
19798;SDS011;10059;59.850;10.454;2022-10-01T10:05:14;27.57;;;18.87;;
19798;SDS011;10059;59.850;10.454;2022-10-01T10:07:42;24.97;;;19.00;;
19798;SDS011;10059;59.850;10.454;2022-10-01T10:10:16;25.83;;;18.67;;
19798;SDS011;10059;59.850;10.454;2022-10-01T10:12:44;25.40;;;18.43;;
19798;SDS011;10059;59.850;10.454;2022-10-01T10:15:13;25.77;;;17.83;;
19798;SDS011;10059;59.850;10.454;2022-10-01T10:17:42;28.73;;;18.30;;
19798;SDS011;10059;59.850;10.454;2022-10-01T10:20:11;19.43;;;16.13;;
19798;SDS011;10059;59.850;10.454;2022-10-01T10:22:39;23.37;;;15.13;;
19798;SDS011;10059;59.850;10.454;2022-10-01T10:25:10;24.43;;;17.20;;
19798;SDS011;10059;59.850;10.454;2022-10-01T10:27:48;24.37;;;16.13;;
19798;SDS011;10059;59.850;10.454;2022-10-01T10:30:18;26.47;;;17.30;;
19798;SDS011;10059;59.850;10.454;2022-10-01T10:32:45;28.47;;;18.30;;
19798;SDS011;10059;59.850;10.454;2022-10-01T10:35:13;22.47;;;17.03;;
19798;SDS011;10059;59.850;10.454;2022-10-01T10:37:44;26.80;;;18.30;;
19798;SDS011;10059;59.850;10.454;2022-10-01T10:40:14;30.30;;;20.03;;
19798;SDS011;10059;59.850;10.454;2022-10-01T10:42:47;30.77;;;20.33;;
19798;SDS011;10059;59.850;10.454;2022-10-01T10:45:15;28.57;;;20.13;;
19798;SDS011;10059;59.850;10.454;2022-10-01T10:47:45;33.30;;;22.53;;
19798;SDS011;10059;59.850;10.454;2022-10-01T10:50:20;33.47;;;22.97;;
19798;SDS011;10059;59.850;10.454;2022-10-01T10:52:51;37.53;;;25.23;;
19798;SDS011;10059;59.850;10.454;2022-10-01T10:55:19;43.17;;;26.70;;
19798;SDS011;10059;59.850;10.454;2022-10-01T10:57:48;35.10;;;25.10;;
19798;SDS011;10059;59.850;10.454;2022-10-01T11:00:17;35.70;;;23.90;;
19798;SDS011;10059;59.850;10.454;2022-10-01T11:02:47;34.50;;;22.70;;
19798;SDS011;10059;59.850;10.454;2022-10-01T11:05:16;34.07;;;20.93;;
19798;SDS011;10059;59.850;10.454;2022-10-01T11:07:44;30.67;;;21.80;;
19798;SDS011;10059;59.850;10.454;2022-10-01T11:10:16;35.53;;;22.00;;
19798;SDS011;10059;59.850;10.454;2022-10-01T11:12:52;34.57;;;22.60;;
19798;SDS011;10059;59.850;10.454;2022-10-01T11:15:33;31.80;;;20.50;;
19798;SDS011;10059;59.850;10.454;2022-10-01T11:18:08;27.77;;;19.93;;
19798;SDS011;10059;59.850;10.454;2022-10-01T11:20:40;33.40;;;23.07;;
19798;SDS011;10059;59.850;10.454;2022-10-01T11:26:06;30.43;;;22.03;;
19798;SDS011;10059;59.850;10.454;2022-10-01T11:28:40;26.73;;;20.60;;
19798;SDS011;10059;59.850;10.454;2022-10-01T11:31:14;29.00;;;20.63;;
19798;SDS011;10059;59.850;10.454;2022-10-01T11:33:51;25.13;;;18.73;;
19798;SDS011;10059;59.850;10.454;2022-10-01T11:36:24;25.93;;;19.23;;
19798;SDS011;10059;59.850;10.454;2022-10-01T11:38:55;24.37;;;18.40;;
19798;SDS011;10059;59.850;10.454;2022-10-01T11:41:25;27.80;;;19.23;;
19798;SDS011;10059;59.850;10.454;2022-10-01T11:43:55;29.83;;;19.13;;
19798;SDS011;10059;59.850;10.454;2022-10-01T11:46:28;28.67;;;17.60;;
19798;SDS011;10059;59.850;10.454;2022-10-01T11:48:58;23.53;;;18.57;;
19798;SDS011;10059;59.850;10.454;2022-10-01T11:51:28;28.83;;;19.50;;
19798;SDS011;10059;59.850;10.454;2022-10-01T11:53:56;27.87;;;18.53;;
19798;SDS011;10059;59.850;10.454;2022-10-01T11:56:26;27.67;;;18.37;;
19798;SDS011;10059;59.850;10.454;2022-10-01T11:59:15;26.10;;;16.60;;
19798;SDS011;10059;59.850;10.454;2022-10-01T12:01:48;24.50;;;17.33;;
19798;SDS011;10059;59.850;10.454;2022-10-01T12:04:23;29.63;;;17.87;;
19798;SDS011;10059;59.850;10.454;2022-10-01T12:06:57;25.43;;;17.33;;
19798;SDS011;10059;59.850;10.454;2022-10-01T12:09:28;25.97;;;18.20;;
19798;SDS011;10059;59.850;10.454;2022-10-01T12:11:58;26.80;;;18.23;;
19798;SDS011;10059;59.850;10.454;2022-10-01T12:14:29;27.63;;;17.67;;
19798;SDS011;10059;59.850;10.454;2022-10-01T12:16:59;24.47;;;16.50;;
19798;SDS011;10059;59.850;10.454;2022-10-01T12:19:30;24.27;;;16.50;;
19798;SDS011;10059;59.850;10.454;2022-10-01T12:22:02;23.67;;;16.20;;
19798;SDS011;10059;59.850;10.454;2022-10-01T12:24:32;21.70;;;15.53;;
19798;SDS011;10059;59.850;10.454;2022-10-01T12:27:04;21.00;;;15.80;;
19798;SDS011;10059;59.850;10.454;2022-10-01T12:29:41;24.77;;;17.43;;
19798;SDS011;10059;59.850;10.454;2022-10-01T12:32:13;25.27;;;17.53;;
19798;SDS011;10059;59.850;10.454;2022-10-01T12:34:45;25.57;;;17.70;;
19798;SDS011;10059;59.850;10.454;2022-10-01T12:37:16;26.57;;;17.07;;
19798;SDS011;10059;59.850;10.454;2022-10-01T12:39:50;22.20;;;15.87;;
19798;SDS011;10059;59.850;10.454;2022-10-01T12:42:24;22.60;;;15.87;;
19798;SDS011;10059;59.850;10.454;2022-10-01T12:44:58;19.53;;;14.83;;
19798;SDS011;10059;59.850;10.454;2022-10-01T12:47:32;24.10;;;17.30;;
19798;SDS011;10059;59.850;10.454;2022-10-01T12:50:05;25.20;;;16.17;;
19798;SDS011;10059;59.850;10.454;2022-10-01T12:52:37;20.97;;;15.33;;
19798;SDS011;10059;59.850;10.454;2022-10-01T12:58:00;21.80;;;15.50;;
19798;SDS011;10059;59.850;10.454;2022-10-01T13:00:31;20.87;;;14.77;;
19798;SDS011;10059;59.850;10.454;2022-10-01T13:03:10;21.83;;;16.37;;
19798;SDS011;10059;59.850;10.454;2022-10-01T13:05:44;21.43;;;16.20;;
19798;SDS011;10059;59.850;10.454;2022-10-01T13:11:01;23.03;;;17.03;;
19798;SDS011;10059;59.850;10.454;2022-10-01T13:13:30;23.53;;;17.17;;
19798;SDS011;10059;59.850;10.454;2022-10-01T13:16:01;27.73;;;17.90;;
19798;SDS011;10059;59.850;10.454;2022-10-01T13:18:33;21.87;;;16.10;;
19798;SDS011;10059;59.850;10.454;2022-10-01T13:21:04;23.63;;;16.20;;
19798;SDS011;10059;59.850;10.454;2022-10-01T13:23:33;23.13;;;16.80;;
19798;SDS011;10059;59.850;10.454;2022-10-01T13:26:05;22.03;;;16.27;;
19798;SDS011;10059;59.850;10.454;2022-10-01T13:28:37;25.63;;;17.03;;
19798;SDS011;10059;59.850;10.454;2022-10-01T13:31:11;25.97;;;16.90;;
19798;SDS011;10059;59.850;10.454;2022-10-01T13:33:39;26.37;;;16.17;;
19798;SDS011;10059;59.850;10.454;2022-10-01T13:36:06;21.90;;;15.23;;
19798;SDS011;10059;59.850;10.454;2022-10-01T13:38:44;20.43;;;14.70;;
19798;SDS011;10059;59.850;10.454;2022-10-01T13:41:16;22.53;;;15.23;;
19798;SDS011;10059;59.850;10.454;2022-10-01T13:43:46;23.90;;;16.53;;
19798;SDS011;10059;59.850;10.454;2022-10-01T13:46:22;22.53;;;15.43;;
19798;SDS011;10059;59.850;10.454;2022-10-01T13:48:50;26.47;;;15.63;;
19798;SDS011;10059;59.850;10.454;2022-10-01T13:51:17;20.83;;;15.33;;
19798;SDS011;10059;59.850;10.454;2022-10-01T13:53:45;18.97;;;15.03;;
19798;SDS011;10059;59.850;10.454;2022-10-01T13:56:25;20.83;;;13.97;;
19798;SDS011;10059;59.850;10.454;2022-10-01T13:58:54;16.63;;;11.87;;
19798;SDS011;10059;59.850;10.454;2022-10-01T14:01:37;17.20;;;12.07;;
19798;SDS011;10059;59.850;10.454;2022-10-01T14:04:08;16.63;;;12.50;;
19798;SDS011;10059;59.850;10.454;2022-10-01T14:06:40;20.93;;;15.10;;
19798;SDS011;10059;59.850;10.454;2022-10-01T14:09:11;21.43;;;14.70;;
19798;SDS011;10059;59.850;10.454;2022-10-01T14:11:40;52.83;;;27.60;;
19798;SDS011;10059;59.850;10.454;2022-10-01T14:14:27;106.23;;;38.80;;
19798;SDS011;10059;59.850;10.454;2022-10-01T14:17:16;62.23;;;25.30;;
19798;SDS011;10059;59.850;10.454;2022-10-01T14:19:46;39.00;;;20.17;;
19798;SDS011;10059;59.850;10.454;2022-10-01T14:25:03;24.60;;;14.50;;
19798;SDS011;10059;59.850;10.454;2022-10-01T14:27:34;24.77;;;15.70;;
19798;SDS011;10059;59.850;10.454;2022-10-01T14:30:05;20.60;;;14.13;;
19798;SDS011;10059;59.850;10.454;2022-10-01T14:32:41;18.20;;;13.60;;
19798;SDS011;10059;59.850;10.454;2022-10-01T14:35:21;20.33;;;13.57;;
19798;SDS011;10059;59.850;10.454;2022-10-01T14:37:55;22.77;;;14.40;;
19798;SDS011;10059;59.850;10.454;2022-10-01T14:40:23;21.67;;;15.37;;
19798;SDS011;10059;59.850;10.454;2022-10-01T14:42:57;22.67;;;15.97;;